Newtown, Connecticut
Current Conditions -  °F | °C
As of 2:53 PM on Thursday 30 Oct 2014 (Local Time) from KDXR Reporting Station
Broken Clouds Broken Clouds  
Wind Chill: 12°   Ceiling: 5500
Heat Index: 12°   Visibility: 10mi
Dew Point:   Wind: 8mph
Humidity: 49%   Direction: 330°NNW
Pressure: 29.97"   Gusts: NA
Location:  41.41°N, 73.3°W
Report Text: KDXR 301853Z 33007KT 10SM FEW043 BKN055 12/02 A2997 RMK AO2 SLP148 T01220017
Loading
Personal Weather Stations






























Interactive Weather Map
Tropical Storm Tracking
New forecast layout! Learn more

10-Day Weather Forecast

Advertisements
Track Severe Weather on mobile